Meteo Giornale » Osservazioni meteo Stati Uniti (USA) » Gunnison
ore: 06:56 - Osservazioni Meteo Gunnison
Lat. 38° 32' N Lon. 106° 56' W Alt. 2339 metri s.l.m.
9 °C
Molto Nuvoloso
Temp. 24 Ore
9 °C
19 °C
Nord
0 Km/h
Dew point 8 °C
Umidità 93 %
Visibilità 10 Km
Il sole sorge alle ore 06:37
Il sole tramonta alle ore 19:37
| Data e Ora | Cielo e Fenomeni | T °C | DP °C | Um. % | Pres. hPa | Vis. km | Vento km/h | |
|---|---|---|---|---|---|---|---|---|
| Oggi h: 06:56 | Molto Nuvoloso | 9 | 8 | 93 | 1028 | 10 | N 0 | |
| Oggi h: 05:56 | Coperto | 10 | 8 | 87 | 1028 | 10 | N 0 | |
| Oggi h: 05:18 | Molto Nuvoloso | 10 | 8 | 87 | 1027 | 10 | N/NE 7.4 | |
| Oggi h: 04:56 | Poco Nuvoloso | 10 | 9 | 93 | 1027 | 10 | N 7.4 | |
| Oggi h: 03:56 | Sereno | 11 | 9 | 87 | 1027 | 10 | N 5.5 | |
| Oggi h: 02:56 | Poco Nuvoloso | 11 | 10 | 93 | 1027 | 10 | N 0 | |
| Oggi h: 01:56 | Sereno | 12 | 10 | 87 | 1027 | 10 | N 7.4 | |
| Oggi h: 00:56 | Coperto | 13 | 11 | 87 | 1028 | 10 | N 5.5 | |
| Ieri h: 23:56 | Coperto | 13 | 11 | 87 | 1027 | 10 | N 0 | |
| Ieri h: 22:56 | Coperto | 14 | 11 | 82 | 1027 | 10 | N 0 | |
| Ieri h: 21:56 | Molto Nuvoloso | 14 | 11 | 82 | 1027 | 10 | N 13 | |
| Ieri h: 20:56 | Poco Nuvoloso | 14 | 11 | 82 | 1027 | 10 | N/NE 11.1 | |
| Ieri h: 19:56 | Coperto | 15 | 11 | 76 | 1027 | 10 | N 7.4 | |
| Ieri h: 18:56 | Molto Nuvoloso | 15 | 11 | 76 | 1027 | 10 | N 5.5 | |
| Ieri h: 17:56 | Coperto | 16 | 11 | 72 | 1027 | 10 | NE 11.1 | |
| Ieri h: 16:56 | Pioggia | 16 | 11 | 72 | 1028 | 10 | S/SO 16.7 | |
| Ieri h: 15:56 | Molto Nuvoloso | 18 | 9 | 55 | 1027 | 10 | N 0 | |
| Ieri h: 14:56 | Pioggia | 16 | 9 | 63 | 1028 | 10 | E 22.2 | |
| Ieri h: 14:25 | Pioggia | 18 | 11 | 63 | 1028 | 10 | S/SO 13 | |
| Ieri h: 14:08 | Temporale nelle vicinanze | 19 | 10 | 55 | 1028 | 10 | O/SO 14.8 | |
| Ieri h: 13:56 | Sereno | 19 | 9 | 52 | 1028 | 10 | O/SO 13 | |
| Ieri h: 12:56 | Sereno | 19 | 8 | 48 | 1028 | 10 | N 0 | |
| Ieri h: 11:56 | Sereno | 17 | 9 | 59 | 1029 | 10 | N 5.5 | |
| Ieri h: 10:56 | Sereno | 15 | 8 | 62 | 1030 | 10 | N/NE 7.4 | |
| Ieri h: 09:56 | Sereno | 12 | 9 | 81 | 1030 | 10 | N 0 | |
| Ieri h: 08:56 | Sereno | 11 | 8 | 81 | 1030 | 10 | N 5.5 | |
| Ieri h: 07:56 | Sereno | 9 | 8 | 93 | 1030 | 10 | N/NE 11.1 | |



